sensor_id;sensor_type;location;lat;lon;timestamp;pressure;altitude;pressure_sealevel;temperature;humidity
18436;BME280;9346;52.006;4.720;2023-02-28T00:01:39;103057.44;;;3.67;100.00
18436;BME280;9346;52.006;4.720;2023-02-28T00:04:06;103063.75;;;3.67;100.00
18436;BME280;9346;52.006;4.720;2023-02-28T00:06:34;103068.53;;;3.65;100.00
18436;BME280;9346;52.006;4.720;2023-02-28T00:09:01;103064.97;;;3.65;100.00
18436;BME280;9346;52.006;4.720;2023-02-28T00:11:30;103067.50;;;3.66;100.00
18436;BME280;9346;52.006;4.720;2023-02-28T00:13:57;103072.09;;;3.66;100.00
18436;BME280;9346;52.006;4.720;2023-02-28T00:16:25;103078.75;;;3.63;100.00
18436;BME280;9346;52.006;4.720;2023-02-28T00:18:52;103070.59;;;3.63;100.00
18436;BME280;9346;52.006;4.720;2023-02-28T00:21:20;103088.47;;;3.66;100.00
18436;BME280;9346;52.006;4.720;2023-02-28T00:23:48;103073.97;;;3.65;100.00
18436;BME280;9346;52.006;4.720;2023-02-28T00:26:15;103078.41;;;3.66;100.00
18436;BME280;9346;52.006;4.720;2023-02-28T00:28:44;103075.69;;;3.66;100.00
18436;BME280;9346;52.006;4.720;2023-02-28T00:31:11;103078.91;;;3.70;100.00
18436;BME280;9346;52.006;4.720;2023-02-28T00:33:37;103087.94;;;3.70;100.00
18436;BME280;9346;52.006;4.720;2023-02-28T00:36:06;103082.78;;;3.75;100.00
18436;BME280;9346;52.006;4.720;2023-02-28T00:38:34;103084.00;;;3.81;100.00
18436;BME280;9346;52.006;4.720;2023-02-28T00:41:01;103074.59;;;3.83;100.00
18436;BME280;9346;52.006;4.720;2023-02-28T00:43:31;103075.25;;;3.85;100.00
18436;BME280;9346;52.006;4.720;2023-02-28T00:46:00;103072.19;;;3.88;100.00
18436;BME280;9346;52.006;4.720;2023-02-28T00:48:28;103072.69;;;3.92;100.00
18436;BME280;9346;52.006;4.720;2023-02-28T00:50:55;103069.59;;;3.95;100.00
18436;BME280;9346;52.006;4.720;2023-02-28T00:53:22;103068.22;;;3.99;100.00
18436;BME280;9346;52.006;4.720;2023-02-28T00:55:49;103061.53;;;4.01;100.00
18436;BME280;9346;52.006;4.720;2023-02-28T00:58:16;103068.38;;;4.05;100.00
18436;BME280;9346;52.006;4.720;2023-02-28T01:00:43;103070.06;;;4.06;100.00
18436;BME280;9346;52.006;4.720;2023-02-28T01:03:16;103069.19;;;4.06;100.00
18436;BME280;9346;52.006;4.720;2023-02-28T01:05:43;103068.84;;;4.09;100.00
18436;BME280;9346;52.006;4.720;2023-02-28T01:08:10;103077.72;;;4.11;100.00
18436;BME280;9346;52.006;4.720;2023-02-28T01:10:39;103077.88;;;4.09;100.00
18436;BME280;9346;52.006;4.720;2023-02-28T01:13:06;103081.25;;;4.11;100.00
18436;BME280;9346;52.006;4.720;2023-02-28T01:15:33;103084.00;;;4.11;100.00
18436;BME280;9346;52.006;4.720;2023-02-28T01:18:00;103081.25;;;4.11;100.00
18436;BME280;9346;52.006;4.720;2023-02-28T01:20:28;103080.63;;;4.09;100.00
18436;BME280;9346;52.006;4.720;2023-02-28T01:22:55;103081.47;;;4.10;100.00
18436;BME280;9346;52.006;4.720;2023-02-28T01:25:22;103078.38;;;4.13;100.00
18436;BME280;9346;52.006;4.720;2023-02-28T01:27:49;103071.72;;;4.15;100.00
18436;BME280;9346;52.006;4.720;2023-02-28T01:30:17;103072.72;;;4.14;100.00
18436;BME280;9346;52.006;4.720;2023-02-28T01:32:44;103068.31;;;4.13;100.00
18436;BME280;9346;52.006;4.720;2023-02-28T01:35:11;103070.34;;;4.11;100.00
18436;BME280;9346;52.006;4.720;2023-02-28T01:37:40;103070.56;;;4.10;100.00
18436;BME280;9346;52.006;4.720;2023-02-28T01:40:08;103074.13;;;4.10;100.00
18436;BME280;9346;52.006;4.720;2023-02-28T01:42:35;103073.09;;;4.11;100.00
18436;BME280;9346;52.006;4.720;2023-02-28T01:45:17;103067.63;;;4.11;100.00
18436;BME280;9346;52.006;4.720;2023-02-28T01:47:48;103067.63;;;4.11;100.00
18436;BME280;9346;52.006;4.720;2023-02-28T01:50:18;103057.41;;;4.13;100.00
18436;BME280;9346;52.006;4.720;2023-02-28T01:52:48;103059.09;;;4.14;100.00
18436;BME280;9346;52.006;4.720;2023-02-28T01:55:18;103055.53;;;4.14;100.00
18436;BME280;9346;52.006;4.720;2023-02-28T01:57:50;103042.91;;;4.13;100.00
18436;BME280;9346;52.006;4.720;2023-02-28T02:00:22;103057.41;;;4.13;100.00
18436;BME280;9346;52.006;4.720;2023-02-28T02:02:51;103058.09;;;4.15;100.00
18436;BME280;9346;52.006;4.720;2023-02-28T02:05:21;103056.00;;;4.17;100.00
18436;BME280;9346;52.006;4.720;2023-02-28T02:07:57;103053.09;;;4.19;100.00
18436;BME280;9346;52.006;4.720;2023-02-28T02:10:29;103043.41;;;4.16;100.00
18436;BME280;9346;52.006;4.720;2023-02-28T02:13:10;103040.69;;;4.16;100.00
18436;BME280;9346;52.006;4.720;2023-02-28T02:15:44;103031.44;;;4.17;100.00
18436;BME280;9346;52.006;4.720;2023-02-28T02:18:21;103031.09;;;4.20;100.00
18436;BME280;9346;52.006;4.720;2023-02-28T02:21:15;103033.81;;;4.20;100.00
18436;BME280;9346;52.006;4.720;2023-02-28T02:26:58;103024.28;;;4.24;100.00
18436;BME280;9346;52.006;4.720;2023-02-28T02:29:55;103020.50;;;4.25;100.00
18436;BME280;9346;52.006;4.720;2023-02-28T02:35:25;103025.97;;;4.25;100.00
18436;BME280;9346;52.006;4.720;2023-02-28T02:37:59;103027.66;;;4.26;100.00
18436;BME280;9346;52.006;4.720;2023-02-28T02:40:33;103023.88;;;4.27;100.00
18436;BME280;9346;52.006;4.720;2023-02-28T02:43:07;103019.97;;;4.30;100.00
18436;BME280;9346;52.006;4.720;2023-02-28T02:45:39;103019.78;;;4.31;100.00
18436;BME280;9346;52.006;4.720;2023-02-28T02:48:11;103018.75;;;4.32;100.00
18436;BME280;9346;52.006;4.720;2023-02-28T02:50:45;103019.44;;;4.34;100.00
18436;BME280;9346;52.006;4.720;2023-02-28T02:53:14;103024.34;;;4.39;100.00
18436;BME280;9346;52.006;4.720;2023-02-28T02:55:46;103024.13;;;4.40;100.00
18436;BME280;9346;52.006;4.720;2023-02-28T02:58:18;103020.41;;;4.41;100.00
18436;BME280;9346;52.006;4.720;2023-02-28T03:00:50;103028.59;;;4.41;100.00
18436;BME280;9346;52.006;4.720;2023-02-28T03:03:20;103022.75;;;4.44;100.00
18436;BME280;9346;52.006;4.720;2023-02-28T03:05:57;103031.97;;;4.43;100.00
18436;BME280;9346;52.006;4.720;2023-02-28T03:08:25;103032.28;;;4.48;100.00
18436;BME280;9346;52.006;4.720;2023-02-28T03:10:55;103034.47;;;4.53;100.00
18436;BME280;9346;52.006;4.720;2023-02-28T03:14:04;103029.47;;;4.56;100.00
18436;BME280;9346;52.006;4.720;2023-02-28T03:16:42;103034.75;;;4.58;100.00
18436;BME280;9346;52.006;4.720;2023-02-28T03:19:34;103036.28;;;4.60;100.00
18436;BME280;9346;52.006;4.720;2023-02-28T03:22:14;103038.84;;;4.62;100.00
18436;BME280;9346;52.006;4.720;2023-02-28T03:24:50;103037.13;;;4.61;100.00
18436;BME280;9346;52.006;4.720;2023-02-28T03:27:24;103037.13;;;4.61;100.00
18436;BME280;9346;52.006;4.720;2023-02-28T03:29:59;103044.13;;;4.63;100.00
18436;BME280;9346;52.006;4.720;2023-02-28T03:32:29;103041.22;;;4.65;100.00
18436;BME280;9346;52.006;4.720;2023-02-28T03:35:03;103039.31;;;4.65;100.00
18436;BME280;9346;52.006;4.720;2023-02-28T03:37:37;103032.16;;;4.64;100.00
18436;BME280;9346;52.006;4.720;2023-02-28T03:40:09;103037.97;;;4.61;100.00
18436;BME280;9346;52.006;4.720;2023-02-28T03:42:39;103039.03;;;4.60;100.00
18436;BME280;9346;52.006;4.720;2023-02-28T03:45:11;103036.13;;;4.62;100.00
18436;BME280;9346;52.006;4.720;2023-02-28T03:47:41;103034.72;;;4.66;100.00
18436;BME280;9346;52.006;4.720;2023-02-28T03:50:13;103031.78;;;4.68;100.00
18436;BME280;9346;52.006;4.720;2023-02-28T03:52:49;103030.56;;;4.70;100.00
18436;BME280;9346;52.006;4.720;2023-02-28T03:55:18;103032.44;;;4.69;100.00
18436;BME280;9346;52.006;4.720;2023-02-28T03:57:53;103030.75;;;4.68;100.00
18436;BME280;9346;52.006;4.720;2023-02-28T04:00:28;103026.34;;;4.68;100.00
18436;BME280;9346;52.006;4.720;2023-02-28T04:02:58;103028.03;;;4.68;100.00
18436;BME280;9346;52.006;4.720;2023-02-28T04:05:26;103028.69;;;4.71;100.00
18436;BME280;9346;52.006;4.720;2023-02-28T04:08:03;103029.34;;;4.72;100.00
18436;BME280;9346;52.006;4.720;2023-02-28T04:10:30;103027.66;;;4.72;100.00
18436;BME280;9346;52.006;4.720;2023-02-28T04:12:57;103028.53;;;4.72;100.00
18436;BME280;9346;52.006;4.720;2023-02-28T04:15:24;103030.03;;;4.75;100.00
18436;BME280;9346;52.006;4.720;2023-02-28T04:17:52;103040.75;;;4.76;100.00
18436;BME280;9346;52.006;4.720;2023-02-28T04:20:19;103034.44;;;4.76;100.00
18436;BME280;9346;52.006;4.720;2023-02-28T04:22:46;103031.72;;;4.76;100.00
18436;BME280;9346;52.006;4.720;2023-02-28T04:25:15;103041.63;;;4.77;100.00
18436;BME280;9346;52.006;4.720;2023-02-28T04:27:42;103039.91;;;4.76;100.00
18436;BME280;9346;52.006;4.720;2023-02-28T04:30:10;103039.91;;;4.76;100.00
18436;BME280;9346;52.006;4.720;2023-02-28T04:32:38;103046.22;;;4.76;100.00
18436;BME280;9346;52.006;4.720;2023-02-28T04:35:05;103042.81;;;4.74;100.00
18436;BME280;9346;52.006;4.720;2023-02-28T04:37:32;103040.09;;;4.74;100.00
18436;BME280;9346;52.006;4.720;2023-02-28T04:40:00;103030.22;;;4.73;100.00
18436;BME280;9346;52.006;4.720;2023-02-28T04:42:28;103040.94;;;4.75;100.00
18436;BME280;9346;52.006;4.720;2023-02-28T04:45:00;103033.63;;;4.75;100.00
18436;BME280;9346;52.006;4.720;2023-02-28T04:47:27;103041.63;;;4.77;100.00
18436;BME280;9346;52.006;4.720;2023-02-28T04:49:55;103044.34;;;4.77;100.00
18436;BME280;9346;52.006;4.720;2023-02-28T04:52:22;103048.28;;;4.74;100.00
18436;BME280;9346;52.006;4.720;2023-02-28T04:54:49;103046.41;;;4.75;100.00
18436;BME280;9346;52.006;4.720;2023-02-28T04:57:16;103056.28;;;4.76;100.00
18436;BME280;9346;52.006;4.720;2023-02-28T04:59:44;103051.88;;;4.75;100.00
18436;BME280;9346;52.006;4.720;2023-02-28T05:02:11;103047.44;;;4.74;100.00
18436;BME280;9346;52.006;4.720;2023-02-28T05:04:38;103051.00;;;4.74;100.00
18436;BME280;9346;52.006;4.720;2023-02-28T05:07:05;103048.97;;;4.76;100.00
18436;BME280;9346;52.006;4.720;2023-02-28T05:09:32;103051.69;;;4.76;100.00
18436;BME280;9346;52.006;4.720;2023-02-28T05:11:59;103044.16;;;4.78;100.00
18436;BME280;9346;52.006;4.720;2023-02-28T05:14:27;103052.91;;;4.74;100.00
18436;BME280;9346;52.006;4.720;2023-02-28T05:16:55;103054.09;;;4.71;100.00
18436;BME280;9346;52.006;4.720;2023-02-28T05:19:22;103049.88;;;4.68;100.00
18436;BME280;9346;52.006;4.720;2023-02-28T05:21:51;103052.78;;;4.67;100.00
18436;BME280;9346;52.006;4.720;2023-02-28T05:24:19;103053.63;;;4.68;100.00
18436;BME280;9346;52.006;4.720;2023-02-28T05:26:48;103051.28;;;4.64;100.00
18436;BME280;9346;52.006;4.720;2023-02-28T05:29:15;103050.91;;;4.68;100.00
18436;BME280;9346;52.006;4.720;2023-02-28T05:31:42;103050.53;;;4.71;100.00
18436;BME280;9346;52.006;4.720;2023-02-28T05:34:11;103048.81;;;4.69;100.00
18436;BME280;9346;52.006;4.720;2023-02-28T05:36:40;103061.66;;;4.69;100.00
18436;BME280;9346;52.006;4.720;2023-02-28T05:39:08;103051.94;;;4.67;100.00
18436;BME280;9346;52.006;4.720;2023-02-28T05:41:39;103056.56;;;4.66;100.00
18436;BME280;9346;52.006;4.720;2023-02-28T05:44:05;103057.28;;;4.60;100.00
18436;BME280;9346;52.006;4.720;2023-02-28T05:46:32;103054.78;;;4.50;100.00
18436;BME280;9346;52.006;4.720;2023-02-28T05:48:59;103058.25;;;4.44;100.00
18436;BME280;9346;52.006;4.720;2023-02-28T05:51:28;103066.47;;;4.36;100.00
18436;BME280;9346;52.006;4.720;2023-02-28T05:53:58;103061.25;;;4.27;100.00
18436;BME280;9346;52.006;4.720;2023-02-28T05:56:26;103067.59;;;4.19;100.00
18436;BME280;9346;52.006;4.720;2023-02-28T05:58:52;103065.59;;;4.13;100.00
18436;BME280;9346;52.006;4.720;2023-02-28T06:01:23;103060.53;;;4.02;100.00
18436;BME280;9346;52.006;4.720;2023-02-28T06:03:50;103055.47;;;3.91;100.00
18436;BME280;9346;52.006;4.720;2023-02-28T06:06:17;103059.41;;;3.89;100.00
18436;BME280;9346;52.006;4.720;2023-02-28T06:08:46;103062.31;;;3.87;100.00
18436;BME280;9346;52.006;4.720;2023-02-28T06:11:13;103062.72;;;3.76;100.00
18436;BME280;9346;52.006;4.720;2023-02-28T06:13:40;103062.53;;;3.70;100.00
18436;BME280;9346;52.006;4.720;2023-02-28T06:16:08;103063.75;;;3.67;100.00
18436;BME280;9346;52.006;4.720;2023-02-28T06:18:37;103053.19;;;3.64;100.00
18436;BME280;9346;52.006;4.720;2023-02-28T06:21:04;103067.00;;;3.63;100.00
18436;BME280;9346;52.006;4.720;2023-02-28T06:23:30;103062.06;;;3.58;100.00
18436;BME280;9346;52.006;4.720;2023-02-28T06:25:59;103058.47;;;3.58;100.00
18436;BME280;9346;52.006;4.720;2023-02-28T06:28:27;103057.16;;;3.54;100.00
18436;BME280;9346;52.006;4.720;2023-02-28T06:30:54;103058.53;;;3.50;100.00
18436;BME280;9346;52.006;4.720;2023-02-28T06:33:21;103068.25;;;3.44;100.00
18436;BME280;9346;52.006;4.720;2023-02-28T06:35:49;103067.22;;;3.45;100.00
18436;BME280;9346;52.006;4.720;2023-02-28T06:38:17;103065.88;;;3.41;100.00
18436;BME280;9346;52.006;4.720;2023-02-28T06:40:53;103064.88;;;3.34;100.00
18436;BME280;9346;52.006;4.720;2023-02-28T06:43:22;103063.66;;;3.29;100.00
18436;BME280;9346;52.006;4.720;2023-02-28T06:45:49;103070.50;;;3.25;100.00
18436;BME280;9346;52.006;4.720;2023-02-28T06:48:16;103075.25;;;3.23;100.00
18436;BME280;9346;52.006;4.720;2023-02-28T06:50:44;103081.56;;;3.23;100.00
18436;BME280;9346;52.006;4.720;2023-02-28T06:53:12;103082.25;;;3.25;100.00
18436;BME280;9346;52.006;4.720;2023-02-28T06:55:40;103085.81;;;3.26;100.00
18436;BME280;9346;52.006;4.720;2023-02-28T06:58:08;103090.91;;;3.29;100.00
18436;BME280;9346;52.006;4.720;2023-02-28T07:00:41;103103.34;;;3.31;100.00
18436;BME280;9346;52.006;4.720;2023-02-28T07:03:09;103103.00;;;3.34;100.00
18436;BME280;9346;52.006;4.720;2023-02-28T07:05:36;103107.78;;;3.32;100.00
18436;BME280;9346;52.006;4.720;2023-02-28T07:08:04;103100.47;;;3.33;100.00
18436;BME280;9346;52.006;4.720;2023-02-28T07:10:31;103107.75;;;3.24;100.00
18436;BME280;9346;52.006;4.720;2023-02-28T07:12:58;103104.03;;;3.17;100.00
18436;BME280;9346;52.006;4.720;2023-02-28T07:15:25;103102.88;;;3.20;100.00
18436;BME280;9346;52.006;4.720;2023-02-28T07:17:54;103108.81;;;3.23;100.00
18436;BME280;9346;52.006;4.720;2023-02-28T07:20:21;103105.03;;;3.24;100.00
18436;BME280;9346;52.006;4.720;2023-02-28T07:22:48;103098.94;;;3.22;100.00
18436;BME280;9346;52.006;4.720;2023-02-28T07:25:21;103104.38;;;3.22;100.00
18436;BME280;9346;52.006;4.720;2023-02-28T07:27:48;103109.13;;;3.20;100.00
18436;BME280;9346;52.006;4.720;2023-02-28T07:30:16;103103.53;;;3.22;100.00
18436;BME280;9346;52.006;4.720;2023-02-28T07:32:43;103108.47;;;3.26;100.00
18436;BME280;9346;52.006;4.720;2023-02-28T07:35:11;103103.69;;;3.28;100.00
18436;BME280;9346;52.006;4.720;2023-02-28T07:37:40;103116.97;;;3.31;100.00
18436;BME280;9346;52.006;4.720;2023-02-28T07:40:10;103112.00;;;3.35;100.00
18436;BME280;9346;52.006;4.720;2023-02-28T07:42:38;103117.13;;;3.38;100.00
18436;BME280;9346;52.006;4.720;2023-02-28T07:45:06;103117.66;;;3.41;100.00
18436;BME280;9346;52.006;4.720;2023-02-28T07:47:33;103116.44;;;3.44;100.00
18436;BME280;9346;52.006;4.720;2023-02-28T07:50:00;103111.84;;;3.44;100.00
18436;BME280;9346;52.006;4.720;2023-02-28T07:52:29;103108.09;;;3.45;100.00
18436;BME280;9346;52.006;4.720;2023-02-28T07:54:57;103099.91;;;3.45;100.00
18436;BME280;9346;52.006;4.720;2023-02-28T07:57:24;103104.03;;;3.41;100.00
18436;BME280;9346;52.006;4.720;2023-02-28T07:59:51;103101.13;;;3.35;100.00
18436;BME280;9346;52.006;4.720;2023-02-28T08:02:18;103103.88;;;3.27;100.00
18436;BME280;9346;52.006;4.720;2023-02-28T08:04:45;103104.72;;;3.19;100.00
18436;BME280;9346;52.006;4.720;2023-02-28T08:07:13;103109.66;;;3.16;100.00
18436;BME280;9346;52.006;4.720;2023-02-28T08:09:43;103106.28;;;3.14;100.00
18436;BME280;9346;52.006;4.720;2023-02-28T08:12:11;103114.94;;;3.17;100.00
18436;BME280;9346;52.006;4.720;2023-02-28T08:14:39;103105.75;;;3.18;100.00
18436;BME280;9346;52.006;4.720;2023-02-28T08:17:06;103105.06;;;3.16;100.00
18436;BME280;9346;52.006;4.720;2023-02-28T08:19:33;103106.09;;;3.15;100.00
18436;BME280;9346;52.006;4.720;2023-02-28T08:22:00;103106.75;;;3.17;100.00
18436;BME280;9346;52.006;4.720;2023-02-28T08:24:27;103102.88;;;3.20;100.00
18436;BME280;9346;52.006;4.720;2023-02-28T08:26:56;103114.41;;;3.22;100.00
18436;BME280;9346;52.006;4.720;2023-02-28T08:29:23;103106.78;;;3.25;100.00
18436;BME280;9346;52.006;4.720;2023-02-28T08:31:50;103108.13;;;3.29;100.00
18436;BME280;9346;52.006;4.720;2023-02-28T08:34:16;103105.75;;;3.34;100.00
18436;BME280;9346;52.006;4.720;2023-02-28T08:36:43;103108.28;;;3.36;100.00
18436;BME280;9346;52.006;4.720;2023-02-28T08:39:12;103117.28;;;3.36;100.00
18436;BME280;9346;52.006;4.720;2023-02-28T08:41:42;103111.00;;;3.36;100.00
18436;BME280;9346;52.006;4.720;2023-02-28T08:44:11;103110.47;;;3.40;100.00
18436;BME280;9346;52.006;4.720;2023-02-28T08:46:37;103108.44;;;3.42;100.00
18436;BME280;9346;52.006;4.720;2023-02-28T08:49:05;103115.56;;;3.43;100.00
18436;BME280;9346;52.006;4.720;2023-02-28T08:51:32;103116.78;;;3.41;100.00
18436;BME280;9346;52.006;4.720;2023-02-28T08:54:00;103116.09;;;3.39;100.00
18436;BME280;9346;52.006;4.720;2023-02-28T08:56:28;103108.94;;;3.38;100.00
18436;BME280;9346;52.006;4.720;2023-02-28T08:58:56;103106.91;;;3.40;100.00
18436;BME280;9346;52.006;4.720;2023-02-28T09:01:26;103115.22;;;3.46;100.00
18436;BME280;9346;52.006;4.720;2023-02-28T09:03:55;103107.41;;;3.51;100.00
18436;BME280;9346;52.006;4.720;2023-02-28T09:06:24;103113.16;;;3.56;100.00
18436;BME280;9346;52.006;4.720;2023-02-28T09:08:51;103116.56;;;3.58;100.00
18436;BME280;9346;52.006;4.720;2023-02-28T09:11:25;103118.09;;;3.61;100.00
18436;BME280;9346;52.006;4.720;2023-02-28T09:13:52;103117.28;;;3.60;100.00
18436;BME280;9346;52.006;4.720;2023-02-28T09:16:20;103119.81;;;3.62;100.00
18436;BME280;9346;52.006;4.720;2023-02-28T09:18:49;103118.78;;;3.63;100.00
18436;BME280;9346;52.006;4.720;2023-02-28T09:21:18;103119.31;;;3.66;100.00
18436;BME280;9346;52.006;4.720;2023-02-28T09:23:47;103127.47;;;3.66;100.00
18436;BME280;9346;52.006;4.720;2023-02-28T09:26:15;103129.81;;;3.69;100.00
18436;BME280;9346;52.006;4.720;2023-02-28T09:28:43;103138.69;;;3.71;100.00
18436;BME280;9346;52.006;4.720;2023-02-28T09:31:14;103128.47;;;3.73;100.00
18436;BME280;9346;52.006;4.720;2023-02-28T09:33:42;103131.22;;;3.73;100.00
18436;BME280;9346;52.006;4.720;2023-02-28T09:36:11;103136.50;;;3.67;100.00
18436;BME280;9346;52.006;4.720;2023-02-28T09:38:38;103133.59;;;3.68;100.00
18436;BME280;9346;52.006;4.720;2023-02-28T09:41:11;103139.56;;;3.72;100.00
18436;BME280;9346;52.006;4.720;2023-02-28T09:43:43;103135.09;;;3.71;100.00
18436;BME280;9346;52.006;4.720;2023-02-28T09:46:25;103140.72;;;3.77;100.00
18436;BME280;9346;52.006;4.720;2023-02-28T09:48:54;103139.53;;;3.80;100.00
18436;BME280;9346;52.006;4.720;2023-02-28T09:51:33;103141.41;;;3.79;100.00
18436;BME280;9346;52.006;4.720;2023-02-28T09:54:02;103142.06;;;3.81;100.00
18436;BME280;9346;52.006;4.720;2023-02-28T09:56:33;103143.59;;;3.84;100.00
18436;BME280;9346;52.006;4.720;2023-02-28T09:59:06;103143.59;;;3.84;100.00
18436;BME280;9346;52.006;4.720;2023-02-28T10:01:39;103132.03;;;3.82;100.00
18436;BME280;9346;52.006;4.720;2023-02-28T10:04:16;103138.66;;;3.87;100.00
18436;BME280;9346;52.006;4.720;2023-02-28T10:06:52;103134.06;;;3.88;100.00
18436;BME280;9346;52.006;4.720;2023-02-28T10:09:23;103142.59;;;3.85;100.00
18436;BME280;9346;52.006;4.720;2023-02-28T10:11:52;103133.53;;;3.84;100.00
18436;BME280;9346;52.006;4.720;2023-02-28T10:14:22;103140.69;;;3.85;100.00
18436;BME280;9346;52.006;4.720;2023-02-28T10:16:52;103130.81;;;3.84;100.00
18436;BME280;9346;52.006;4.720;2023-02-28T10:19:26;103134.72;;;3.90;100.00
18436;BME280;9346;52.006;4.720;2023-02-28T10:22:01;103133.72;;;3.91;100.00
18436;BME280;9346;52.006;4.720;2023-02-28T10:24:32;103131.47;;;3.94;100.00
18436;BME280;9346;52.006;4.720;2023-02-28T10:27:06;103132.97;;;4.05;100.00
18436;BME280;9346;52.006;4.720;2023-02-28T10:29:40;103133.97;;;4.12;100.00
18436;BME280;9346;52.006;4.720;2023-02-28T10:32:11;103129.31;;;4.20;100.00
18436;BME280;9346;52.006;4.720;2023-02-28T10:34:39;103123.13;;;4.34;100.00
18436;BME280;9346;52.006;4.720;2023-02-28T10:37:09;103126.94;;;4.48;100.00
18436;BME280;9346;52.006;4.720;2023-02-28T10:39:39;103119.88;;;4.61;100.00
18436;BME280;9346;52.006;4.720;2023-02-28T10:42:20;103114.84;;;4.73;100.00
18436;BME280;9346;52.006;4.720;2023-02-28T10:44:47;103102.34;;;4.79;100.00
18436;BME280;9346;52.006;4.720;2023-02-28T10:47:16;103097.84;;;4.86;100.00
18436;BME280;9346;52.006;4.720;2023-02-28T10:49:48;103094.34;;;5.00;100.00
18436;BME280;9346;52.006;4.720;2023-02-28T10:52:35;103085.31;;;5.14;100.00
18436;BME280;9346;52.006;4.720;2023-02-28T10:55:19;103076.75;;;5.17;100.00
18436;BME280;9346;52.006;4.720;2023-02-28T10:57:47;103084.59;;;5.20;100.00
18436;BME280;9346;52.006;4.720;2023-02-28T11:00:16;103076.41;;;5.20;100.00
18436;BME280;9346;52.006;4.720;2023-02-28T11:02:44;103073.97;;;5.25;100.00
18436;BME280;9346;52.006;4.720;2023-02-28T11:05:26;103079.06;;;5.28;100.00
18436;BME280;9346;52.006;4.720;2023-02-28T11:07:57;103074.78;;;5.25;100.00
18436;BME280;9346;52.006;4.720;2023-02-28T11:10:29;103076.97;;;5.30;100.00
18436;BME280;9346;52.006;4.720;2023-02-28T11:13:00;103076.50;;;5.26;100.00
18436;BME280;9346;52.006;4.720;2023-02-28T11:15:29;103062.38;;;5.23;100.00
18436;BME280;9346;52.006;4.720;2023-02-28T11:17:59;103074.34;;;5.22;100.00
18436;BME280;9346;52.006;4.720;2023-02-28T11:20:28;103066.97;;;5.22;100.00
18436;BME280;9346;52.006;4.720;2023-02-28T11:22:59;103068.88;;;5.22;100.00
18436;BME280;9346;52.006;4.720;2023-02-28T11:25:30;103067.81;;;5.23;100.00
18436;BME280;9346;52.006;4.720;2023-02-28T11:27:59;103068.13;;;5.28;100.00
18436;BME280;9346;52.006;4.720;2023-02-28T11:30:35;103068.41;;;5.33;100.00
18436;BME280;9346;52.006;4.720;2023-02-28T11:33:21;103061.81;;;5.42;100.00
18436;BME280;9346;52.006;4.720;2023-02-28T11:35:49;103056.19;;;5.43;100.00
18436;BME280;9346;52.006;4.720;2023-02-28T11:38:21;103058.34;;;5.48;100.00
18436;BME280;9346;52.006;4.720;2023-02-28T11:40:54;103055.25;;;5.51;100.00
18436;BME280;9346;52.006;4.720;2023-02-28T11:43:38;103051.47;;;5.52;100.00
18436;BME280;9346;52.006;4.720;2023-02-28T11:46:18;103048.53;;;5.53;100.00
18436;BME280;9346;52.006;4.720;2023-02-28T11:48:57;103056.75;;;5.53;100.00
18436;BME280;9346;52.006;4.720;2023-02-28T11:51:29;103052.31;;;5.52;100.00
18436;BME280;9346;52.006;4.720;2023-02-28T11:54:13;103047.59;;;5.61;100.00
18436;BME280;9346;52.006;4.720;2023-02-28T11:56:47;103040.34;;;5.68;100.00
18436;BME280;9346;52.006;4.720;2023-02-28T11:59:37;103032.81;;;5.70;100.00
18436;BME280;9346;52.006;4.720;2023-02-28T12:02:26;103034.03;;;5.82;100.00
18436;BME280;9346;52.006;4.720;2023-02-28T12:05:19;103027.81;;;5.88;100.00
18436;BME280;9346;52.006;4.720;2023-02-28T12:07:58;103026.66;;;5.97;100.00
18436;BME280;9346;52.006;4.720;2023-02-28T12:10:35;103024.97;;;5.96;100.00
18436;BME280;9346;52.006;4.720;2023-02-28T12:13:12;103031.28;;;5.96;100.00
18436;BME280;9346;52.006;4.720;2023-02-28T12:19:12;103020.34;;;5.96;100.00
18436;BME280;9346;52.006;4.720;2023-02-28T12:22:04;103022.81;;;5.91;100.00
18436;BME280;9346;52.006;4.720;2023-02-28T12:24:52;103023.25;;;5.95;98.74
18436;BME280;9346;52.006;4.720;2023-02-28T12:27:28;103022.63;;;5.93;99.21
18436;BME280;9346;52.006;4.720;2023-02-28T12:30:00;103024.31;;;5.94;99.76
18436;BME280;9346;52.006;4.720;2023-02-28T12:32:32;103019.03;;;5.92;99.49
18436;BME280;9346;52.006;4.720;2023-02-28T12:35:03;103020.47;;;5.88;99.34
18436;BME280;9346;52.006;4.720;2023-02-28T12:37:36;103017.72;;;5.88;100.00
18436;BME280;9346;52.006;4.720;2023-02-28T12:40:11;103020.06;;;5.91;99.29
18436;BME280;9346;52.006;4.720;2023-02-28T12:42:43;103008.94;;;5.93;98.14
18436;BME280;9346;52.006;4.720;2023-02-28T12:45:18;103018.72;;;6.02;97.96
18436;BME280;9346;52.006;4.720;2023-02-28T12:47:49;103020.69;;;6.08;96.37
18436;BME280;9346;52.006;4.720;2023-02-28T12:50:21;103016.75;;;6.10;95.17
18436;BME280;9346;52.006;4.720;2023-02-28T12:52:54;103020.50;;;6.09;93.58
18436;BME280;9346;52.006;4.720;2023-02-28T12:55:29;103006.81;;;6.09;96.09
18436;BME280;9346;52.006;4.720;2023-02-28T12:58:08;102994.00;;;6.10;92.72
18436;BME280;9346;52.006;4.720;2023-02-28T13:00:47;102988.50;;;6.10;94.96
18436;BME280;9346;52.006;4.720;2023-02-28T13:03:37;102989.38;;;6.10;98.02
18436;BME280;9346;52.006;4.720;2023-02-28T13:06:17;102986.84;;;6.09;94.59
18436;BME280;9346;52.006;4.720;2023-02-28T13:08:58;102987.09;;;6.14;99.89
18436;BME280;9346;52.006;4.720;2023-02-28T13:11:29;102986.50;;;6.18;96.12
18436;BME280;9346;52.006;4.720;2023-02-28T13:14:02;102977.63;;;6.16;94.60
18436;BME280;9346;52.006;4.720;2023-02-28T13:16:51;102982.84;;;6.11;88.84
18436;BME280;9346;52.006;4.720;2023-02-28T13:19:21;102969.75;;;6.07;91.78
18436;BME280;9346;52.006;4.720;2023-02-28T13:21:50;102969.16;;;6.11;93.26
18436;BME280;9346;52.006;4.720;2023-02-28T13:24:47;102971.25;;;6.09;90.49
18436;BME280;9346;52.006;4.720;2023-02-28T13:27:34;102964.38;;;6.13;91.32
18436;BME280;9346;52.006;4.720;2023-02-28T13:33:22;102960.56;;;6.14;89.18